createdAt,value
2024-01-09T00:00:19.560Z,97620.48
2024-01-09T00:03:11.870Z,97622.23
2024-01-09T00:05:42.697Z,97623.59
2024-01-09T00:08:13.859Z,97630.45
2024-01-09T00:10:44.821Z,97639.02
2024-01-09T00:13:14.204Z,97638.57
2024-01-09T00:15:44.006Z,97644.29
2024-01-09T00:18:13.966Z,97648.45
2024-01-09T00:20:45.280Z,97652.31
2024-01-09T00:23:15.861Z,97652.83
2024-01-09T00:25:45.569Z,97657.35
2024-01-09T00:28:16.790Z,97659.41
2024-01-09T00:30:47.309Z,97660.46
2024-01-09T00:33:20.454Z,97659.84
2024-01-09T00:35:53.763Z,97664.98
2024-01-09T00:38:25.889Z,97667.52
2024-01-09T00:40:56.693Z,97675.06
2024-01-09T00:43:27.528Z,97675.56
2024-01-09T00:45:57.959Z,97678.70
2024-01-09T00:48:30.356Z,97683.66
2024-01-09T00:51:02.613Z,97688.08
2024-01-09T00:53:34.354Z,97688.04
2024-01-09T00:56:05.580Z,97689.56
2024-01-09T00:58:37.282Z,97691.17
2024-01-09T01:01:07.768Z,97696.13
2024-01-09T01:03:38.741Z,97701.10
2024-01-09T01:06:11.951Z,97704.38
2024-01-09T01:08:45.138Z,97703.02
2024-01-09T01:11:16.310Z,97707.03
2024-01-09T01:13:46.552Z,97705.76
2024-01-09T01:16:15.636Z,97707.31
2024-01-09T01:18:45.984Z,97713.01
2024-01-09T01:21:17.917Z,97718.41
2024-01-09T01:23:49.911Z,97721.88
2024-01-09T01:26:22.278Z,97733.39
2024-01-09T01:28:53.421Z,97731.14
2024-01-09T01:31:24.279Z,97739.66
2024-01-09T01:33:57.533Z,97737.92
2024-01-09T01:36:32.793Z,97743.00
2024-01-09T01:39:04.697Z,97749.84
2024-01-09T01:41:36.680Z,97758.86
2024-01-09T01:44:19.514Z,97757.92
2024-01-09T01:46:52.509Z,97760.27
2024-01-09T01:49:24.729Z,97761.85
2024-01-09T01:51:57.009Z,97762.81
2024-01-09T01:54:29.758Z,97768.41
2024-01-09T01:57:05.189Z,97778.35
2024-01-09T01:59:41.924Z,97777.50
2024-01-09T02:02:16.408Z,97779.92
2024-01-09T02:04:50.073Z,97784.89
2024-01-09T02:07:21.424Z,97786.06
2024-01-09T02:09:55.351Z,97791.14
2024-01-09T02:12:26.341Z,97790.20
2024-01-09T02:15:00.798Z,97795.34
2024-01-09T02:17:34.016Z,97797.73
2024-01-09T02:20:10.317Z,97800.14
2024-01-09T02:22:41.896Z,97805.52
2024-01-09T02:25:13.153Z,97810.52
2024-01-09T02:28:08.540Z,97815.63
2024-01-09T02:30:41.092Z,97818.48
2024-01-09T02:33:12.564Z,97817.00
2024-01-09T02:35:43.726Z,97822.88
2024-01-09T02:38:16.141Z,97824.46
2024-01-09T02:40:46.832Z,97824.35
2024-01-09T02:43:18.691Z,97827.27
2024-01-09T02:45:49.589Z,97827.30
2024-01-09T02:48:21.980Z,97827.15
2024-01-09T02:50:52.509Z,97834.20
2024-01-09T02:53:24.338Z,97831.98
2024-01-09T02:55:56.567Z,97832.95
2024-01-09T02:58:30.966Z,97834.13
2024-01-09T03:01:06.039Z,97842.37
2024-01-09T03:03:42.836Z,97847.38
2024-01-09T03:06:18.421Z,97851.52
2024-01-09T03:08:50.464Z,97854.50
2024-01-09T03:11:26.428Z,97853.50
2024-01-09T03:14:01.092Z,97854.89
2024-01-09T03:16:37.832Z,97858.83
2024-01-09T03:19:15.895Z,97860.52
2024-01-09T03:21:53.053Z,97867.44
2024-01-09T03:24:24.800Z,97868.31
2024-01-09T03:26:57.020Z,97868.84
2024-01-09T03:29:28.252Z,97870.11
2024-01-09T03:32:01.585Z,97871.96
2024-01-09T03:34:35.562Z,97875.36
2024-01-09T03:37:09.775Z,97883.23
2024-01-09T03:39:42.612Z,97890.59
2024-01-09T03:42:13.843Z,97891.36
2024-01-09T03:44:45.609Z,97897.70
2024-01-09T03:47:18.079Z,97900.02
2024-01-09T03:49:47.561Z,97901.92
2024-01-09T03:52:19.839Z,97909.39
2024-01-09T03:54:50.028Z,97916.23
2024-01-09T03:57:20.545Z,97915.93
2024-01-09T03:59:50.960Z,97920.27
2024-01-09T04:02:22.158Z,97920.17
2024-01-09T04:04:54.032Z,97923.85
2024-01-09T04:07:24.265Z,97926.33
2024-01-09T04:09:53.748Z,97936.27
2024-01-09T04:12:25.036Z,97942.44
2024-01-09T04:14:56.815Z,97946.91
2024-01-09T04:17:31.405Z,97951.75
2024-01-09T04:20:03.561Z,97956.42
2024-01-09T04:22:33.982Z,97958.66
2024-01-09T04:25:03.636Z,97960.87
2024-01-09T04:27:33.396Z,97968.11
2024-01-09T04:30:04.414Z,97969.83
2024-01-09T04:32:35.220Z,97974.64
2024-01-09T04:35:05.596Z,97974.36
2024-01-09T04:37:36.437Z,97979.89
2024-01-09T04:40:06.991Z,97980.64
2024-01-09T04:42:39.548Z,97981.97
2024-01-09T04:45:10.765Z,97991.60
2024-01-09T04:47:40.724Z,97990.77
2024-01-09T04:50:10.668Z,98001.79
2024-01-09T04:52:41.410Z,98006.58
2024-01-09T04:55:11.938Z,98011.05
2024-01-09T04:57:41.906Z,98015.70
2024-01-09T05:00:13.238Z,98017.28
2024-01-09T05:02:43.594Z,98025.02
2024-01-09T05:05:14.344Z,98034.80
2024-01-09T05:07:44.623Z,98038.96
2024-01-09T05:10:15.595Z,98040.41
2024-01-09T05:12:46.431Z,98044.05
2024-01-09T05:15:18.090Z,98052.33
2024-01-09T05:17:49.442Z,98055.83
2024-01-09T05:20:19.282Z,98064.10
2024-01-09T05:22:50.114Z,98064.88
2024-01-09T05:25:20.724Z,98066.31
2024-01-09T05:27:51.309Z,98070.16
2024-01-09T05:30:21.779Z,98074.67
2024-01-09T05:32:51.628Z,98082.93
2024-01-09T05:35:22.844Z,98087.42
2024-01-09T05:37:56.239Z,98087.82
2024-01-09T05:40:29.788Z,98090.59
2024-01-09T05:43:00.372Z,98095.23
2024-01-09T05:45:30.620Z,98103.31
2024-01-09T05:47:59.985Z,98110.67
2024-01-09T05:50:30.337Z,98111.94
2024-01-09T05:53:00.351Z,98114.70
2024-01-09T05:55:30.707Z,98121.95
2024-01-09T05:58:00.734Z,98123.52
2024-01-09T06:00:30.878Z,98130.91
2024-01-09T06:03:00.977Z,98135.89
2024-01-09T06:05:30.968Z,98136.25
2024-01-09T06:08:00.981Z,98140.73
2024-01-09T06:10:30.281Z,98144.16
2024-01-09T06:12:59.634Z,98148.24
2024-01-09T06:15:29.347Z,98153.04
2024-01-09T06:17:59.524Z,98158.34
2024-01-09T06:20:30.293Z,98163.46
2024-01-09T06:23:00.079Z,98165.84
2024-01-09T06:25:31.557Z,98170.63
2024-01-09T06:28:01.605Z,98174.38
2024-01-09T06:30:32.765Z,98178.32
2024-01-09T06:33:03.306Z,98185.66
2024-01-09T06:35:32.748Z,98191.63
2024-01-09T06:38:02.084Z,98195.55
2024-01-09T06:40:32.042Z,98196.76
2024-01-09T06:43:01.538Z,98201.84
2024-01-09T06:45:31.234Z,98206.07
2024-01-09T06:48:01.650Z,98211.48
2024-01-09T06:50:37.579Z,98212.80
2024-01-09T06:53:08.784Z,98219.09
2024-01-09T06:55:38.103Z,98222.29
2024-01-09T06:58:07.298Z,98224.29
2024-01-09T07:00:36.890Z,98231.59
2024-01-09T07:03:06.870Z,98242.11
2024-01-09T07:05:36.458Z,98244.06
2024-01-09T07:08:06.400Z,98253.48
2024-01-09T07:10:36.328Z,98261.21
2024-01-09T07:13:05.339Z,98260.86
2024-01-09T07:15:35.145Z,98258.89
2024-01-09T07:18:04.824Z,98262.64
2024-01-09T07:20:34.822Z,98262.27
2024-01-09T07:23:14.009Z,98263.82
2024-01-09T07:25:50.122Z,98266.77
2024-01-09T07:28:19.849Z,98268.73
2024-01-09T07:30:49.823Z,98273.44
2024-01-09T07:33:19.058Z,98277.02
2024-01-09T07:35:48.945Z,98282.86
2024-01-09T07:38:23.734Z,98288.02
2024-01-09T07:40:55.948Z,98294.98
2024-01-09T07:43:27.056Z,98300.32
2024-01-09T07:45:56.994Z,98309.94
2024-01-09T07:48:27.133Z,98311.78
2024-01-09T07:50:58.903Z,98314.89
2024-01-09T07:53:28.673Z,98315.90
2024-01-09T07:55:58.445Z,98320.41
2024-01-09T07:58:28.345Z,98324.61
2024-01-09T08:00:57.307Z,98330.20
2024-01-09T08:03:27.022Z,98334.67
2024-01-09T08:05:57.705Z,98337.96
2024-01-09T08:08:27.761Z,98346.64
2024-01-09T08:10:57.206Z,98352.12
2024-01-09T08:13:26.606Z,98356.84
2024-01-09T08:15:57.304Z,98359.67
2024-01-09T08:18:27.268Z,98363.53
2024-01-09T08:20:58.270Z,98369.33
2024-01-09T08:23:27.882Z,98375.93
2024-01-09T08:25:57.399Z,98379.55
2024-01-09T08:28:26.720Z,98377.73
2024-01-09T08:30:56.257Z,98386.55
2024-01-09T08:33:27.835Z,98383.30
2024-01-09T08:35:59.061Z,98389.85
2024-01-09T08:38:28.868Z,98398.10
2024-01-09T08:40:58.626Z,98399.21
2024-01-09T08:43:28.039Z,98403.61
2024-01-09T08:45:58.478Z,98405.35
2024-01-09T08:48:29.075Z,98404.66
2024-01-09T08:50:59.667Z,98410.20
2024-01-09T08:53:32.274Z,98406.36
2024-01-09T08:56:01.906Z,98414.23
2024-01-09T08:58:31.411Z,98408.69
2024-01-09T09:01:00.843Z,98413.98
2024-01-09T09:03:31.820Z,98414.64
2024-01-09T09:06:01.801Z,98416.83
2024-01-09T09:08:32.584Z,98423.63
2024-01-09T09:11:03.082Z,98423.55
2024-01-09T09:13:34.290Z,98418.73
2024-01-09T09:16:04.073Z,98422.42
2024-01-09T09:18:33.304Z,98423.11
2024-01-09T09:21:05.507Z,98415.98
2024-01-09T09:23:35.034Z,98410.59
2024-01-09T09:26:05.356Z,98414.32
2024-01-09T09:28:41.077Z,98412.61
2024-01-09T09:31:20.325Z,98412.56
2024-01-09T09:33:50.013Z,98415.49
2024-01-09T09:36:19.387Z,98415.67
2024-01-09T09:38:48.983Z,98419.38
2024-01-09T09:41:19.365Z,98414.35
2024-01-09T09:43:57.259Z,98416.64
2024-01-09T09:46:34.210Z,98415.13
2024-01-09T09:49:05.066Z,98414.41
2024-01-09T09:51:35.751Z,98414.80
2024-01-09T09:54:06.513Z,98414.88
2024-01-09T09:56:36.564Z,98415.73
2024-01-09T09:59:06.138Z,98412.08
2024-01-09T10:01:36.743Z,98412.46
2024-01-09T10:04:28.192Z,98415.27
2024-01-09T10:06:58.696Z,98412.12
2024-01-09T10:09:44.102Z,98413.13
2024-01-09T10:12:13.876Z,98416.84
2024-01-09T10:15:10.790Z,98414.27
2024-01-09T10:17:41.782Z,98416.50
2024-01-09T10:20:12.716Z,98421.31
2024-01-09T10:22:42.316Z,98423.77
2024-01-09T10:25:13.566Z,98426.80
2024-01-09T10:27:42.785Z,98426.54
2024-01-09T10:30:14.436Z,98429.30
2024-01-09T10:32:45.598Z,98429.61
2024-01-09T10:35:17.346Z,98424.09
2024-01-09T10:37:46.607Z,98424.81
2024-01-09T10:40:16.704Z,98428.59
2024-01-09T10:42:49.225Z,98426.38
2024-01-09T10:45:21.273Z,98429.39
2024-01-09T10:47:55.462Z,98436.23
2024-01-09T10:50:25.467Z,98433.67
2024-01-09T10:52:55.211Z,98440.47
2024-01-09T10:55:26.501Z,98440.41
2024-01-09T10:57:56.087Z,98441.95
2024-01-09T11:00:26.651Z,98440.96
2024-01-09T11:02:56.358Z,98439.13
2024-01-09T11:05:26.306Z,98443.86
2024-01-09T11:07:59.620Z,98445.26
2024-01-09T11:10:29.661Z,98443.80
2024-01-09T11:13:01.035Z,98441.29
2024-01-09T11:15:45.958Z,98443.16
2024-01-09T11:18:19.165Z,98437.42
2024-01-09T11:20:48.807Z,98439.38
2024-01-09T11:23:55.036Z,98446.79
2024-01-09T11:26:25.480Z,98443.05
2024-01-09T11:28:54.808Z,98446.48
2024-01-09T11:31:25.445Z,98447.42
2024-01-09T11:33:56.975Z,98446.63
2024-01-09T11:36:29.191Z,98442.13
2024-01-09T11:38:58.956Z,98441.48
2024-01-09T11:41:35.784Z,98439.30
2024-01-09T11:44:06.519Z,98440.98
2024-01-09T11:46:37.920Z,98434.58
2024-01-09T11:49:08.623Z,98438.58
2024-01-09T11:51:38.609Z,98443.11
2024-01-09T11:54:11.156Z,98445.27
2024-01-09T11:56:40.513Z,98442.33
2024-01-09T11:59:10.025Z,98439.16
2024-01-09T12:01:38.987Z,98442.17
2024-01-09T12:04:09.497Z,98444.15
2024-01-09T12:06:41.686Z,98447.31
2024-01-09T12:09:13.738Z,98450.94
2024-01-09T12:11:43.429Z,98446.10
2024-01-09T12:14:14.107Z,98451.52
2024-01-09T12:16:43.401Z,98454.14
2024-01-09T12:19:16.889Z,98456.88
2024-01-09T12:21:47.423Z,98460.95
2024-01-09T12:24:22.917Z,98459.67
2024-01-09T12:26:55.647Z,98461.12
2024-01-09T12:29:25.192Z,98459.43
2024-01-09T12:31:54.754Z,98455.34
2024-01-09T12:34:24.068Z,98464.04
2024-01-09T12:36:53.037Z,98462.48
2024-01-09T12:39:23.709Z,98472.17
2024-01-09T12:42:05.804Z,98474.42
2024-01-09T12:44:35.338Z,98474.76
2024-01-09T12:47:05.031Z,98474.48
2024-01-09T12:49:56.522Z,98474.50
2024-01-09T12:52:33.614Z,98476.80
2024-01-09T12:55:05.186Z,98477.84
2024-01-09T12:57:34.756Z,98479.38
2024-01-09T13:00:04.042Z,98484.29
2024-01-09T13:02:34.150Z,98484.23
2024-01-09T13:05:03.960Z,98484.69
2024-01-09T13:07:33.392Z,98485.27
2024-01-09T13:10:02.820Z,98484.30
2024-01-09T13:12:34.196Z,98484.10
2024-01-09T13:15:04.335Z,98489.77
2024-01-09T13:17:34.023Z,98493.54
2024-01-09T13:20:08.692Z,98497.33
2024-01-09T13:25:10.048Z,98498.27
2024-01-09T13:27:39.470Z,98495.73
2024-01-09T13:32:41.885Z,98498.08
2024-01-09T13:35:11.654Z,98501.63
2024-01-09T13:37:41.717Z,98501.13
2024-01-09T13:40:12.619Z,98500.77
2024-01-09T13:42:41.713Z,98501.29
2024-01-09T13:45:13.183Z,98503.34
2024-01-09T13:47:43.597Z,98506.59
2024-01-09T13:51:47.205Z,98508.14
2024-01-09T13:53:04.388Z,98512.69
2024-01-09T13:55:35.141Z,98516.56
2024-01-09T13:58:05.040Z,98520.75
2024-01-09T14:00:35.051Z,98519.65
2024-01-09T14:03:05.295Z,98520.73
2024-01-09T14:05:34.552Z,98522.57
2024-01-09T14:08:04.629Z,98519.48
2024-01-09T14:10:34.272Z,98524.38
2024-01-09T14:13:04.236Z,98520.02
2024-01-09T14:15:34.883Z,98520.45
2024-01-09T14:18:06.278Z,98522.84
2024-01-09T14:20:36.802Z,98525.61
2024-01-09T14:23:05.838Z,98534.21
2024-01-09T14:25:37.830Z,98532.59
2024-01-09T14:28:08.126Z,98531.70
2024-01-09T14:30:36.988Z,98536.95
2024-01-09T14:33:07.513Z,98538.56
2024-01-09T14:35:39.028Z,98540.45
2024-01-09T14:38:08.073Z,98543.48
2024-01-09T14:40:39.563Z,98550.23
2024-01-09T14:43:09.045Z,98551.67
2024-01-09T14:45:41.991Z,98551.30
2024-01-09T14:48:11.395Z,98551.11
2024-01-09T14:50:41.256Z,98550.30
2024-01-09T14:53:11.348Z,98556.73
2024-01-09T14:55:42.175Z,98555.73
2024-01-09T14:58:11.395Z,98557.05
2024-01-09T15:00:42.056Z,98558.24
2024-01-09T15:03:11.783Z,98563.44
2024-01-09T15:05:42.388Z,98565.67
2024-01-09T15:08:11.480Z,98571.27
2024-01-09T15:10:41.712Z,98572.77
2024-01-09T15:13:14.625Z,98574.08
2024-01-09T15:15:43.766Z,98578.42
2024-01-09T15:18:12.944Z,98577.57
2024-01-09T15:20:42.112Z,98582.63
2024-01-09T15:23:14.142Z,98585.79
2024-01-09T15:25:43.460Z,98594.36
2024-01-09T15:28:14.112Z,98594.66
2024-01-09T15:30:43.195Z,98598.00
2024-01-09T15:33:12.636Z,98601.48
2024-01-09T15:35:42.780Z,98606.34
2024-01-09T15:38:12.047Z,98605.39
2024-01-09T15:40:41.680Z,98606.82
2024-01-09T15:43:10.996Z,98608.23
2024-01-09T15:45:40.617Z,98614.44
2024-01-09T15:48:10.283Z,98618.06
2024-01-09T15:50:39.312Z,98625.64
2024-01-09T15:53:09.175Z,98625.16
2024-01-09T15:55:39.760Z,98634.94
2024-01-09T15:58:10.364Z,98631.71
2024-01-09T16:00:43.070Z,98632.59
2024-01-09T16:03:14.110Z,98636.73
2024-01-09T16:05:43.937Z,98637.09
2024-01-09T16:08:13.057Z,98637.60
2024-01-09T16:10:44.488Z,98644.12
2024-01-09T16:13:14.358Z,98642.42
2024-01-09T16:15:49.704Z,98641.73
2024-01-09T16:18:19.238Z,98640.89
2024-01-09T16:20:48.296Z,98642.59
2024-01-09T16:23:17.236Z,98642.59
2024-01-09T16:25:46.508Z,98645.49
2024-01-09T16:28:17.809Z,98644.81
2024-01-09T16:30:47.149Z,98643.10
2024-01-09T16:33:16.823Z,98645.67
2024-01-09T16:35:46.164Z,98649.75
2024-01-09T16:38:16.039Z,98652.82
2024-01-09T16:40:45.483Z,98658.61
2024-01-09T16:43:15.377Z,98657.58
2024-01-09T16:45:47.511Z,98658.94
2024-01-09T16:48:31.477Z,98659.42
2024-01-09T16:51:06.706Z,98658.89
2024-01-09T16:53:35.731Z,98661.42
2024-01-09T16:56:05.453Z,98664.13
2024-01-09T16:58:35.234Z,98663.94
2024-01-09T17:01:04.937Z,98665.97
2024-01-09T17:03:35.688Z,98668.86
2024-01-09T17:06:05.974Z,98673.44
2024-01-09T17:08:35.000Z,98674.61
2024-01-09T17:11:04.306Z,98679.02
2024-01-09T17:13:33.440Z,98680.70
2024-01-09T17:16:06.603Z,98684.77
2024-01-09T17:18:36.697Z,98685.77
2024-01-09T17:21:06.844Z,98688.30
2024-01-09T17:23:36.076Z,98687.95
2024-01-09T17:26:05.595Z,98692.15
2024-01-09T17:28:34.500Z,98694.81
2024-01-09T17:31:04.622Z,98691.54
2024-01-09T17:33:34.266Z,98694.21
2024-01-09T17:36:03.440Z,98700.30
2024-01-09T17:38:32.895Z,98703.66
2024-01-09T17:41:02.277Z,98703.95
2024-01-09T17:43:31.074Z,98708.34
2024-01-09T17:46:00.052Z,98707.80
2024-01-09T17:48:30.284Z,98711.19
2024-01-09T17:51:02.929Z,98713.71
2024-01-09T17:53:31.817Z,98717.45
2024-01-09T17:56:03.287Z,98716.77
2024-01-09T17:58:32.285Z,98719.66
2024-01-09T18:01:03.179Z,98719.16
2024-01-09T18:03:32.329Z,98722.73
2024-01-09T18:06:02.114Z,98723.91
2024-01-09T18:08:31.311Z,98725.58
2024-01-09T18:11:04.027Z,98727.75
2024-01-09T18:13:33.129Z,98730.98
2024-01-09T18:16:02.148Z,98731.76
2024-01-09T18:18:35.014Z,98726.40
2024-01-09T18:21:06.269Z,98727.02
2024-01-09T18:23:35.810Z,98728.83
2024-01-09T18:26:11.081Z,98728.61
2024-01-09T18:28:43.860Z,98731.98
2024-01-09T18:31:16.591Z,98732.84
2024-01-09T18:33:46.478Z,98731.42
2024-01-09T18:36:15.232Z,98734.75
2024-01-09T18:38:44.239Z,98735.27
2024-01-09T18:41:20.289Z,98732.64
2024-01-09T18:43:49.613Z,98736.80
2024-01-09T18:46:18.762Z,98735.86
2024-01-09T18:48:48.053Z,98734.74
2024-01-09T18:51:16.850Z,98736.94
2024-01-09T18:53:46.159Z,98738.86
2024-01-09T18:56:15.138Z,98740.45
2024-01-09T18:58:44.354Z,98741.55
2024-01-09T19:01:13.471Z,98743.34
2024-01-09T19:03:42.603Z,98743.27
2024-01-09T19:06:11.521Z,98746.95
2024-01-09T19:08:41.240Z,98749.94
2024-01-09T19:11:10.938Z,98756.48
2024-01-09T19:13:40.381Z,98757.24
2024-01-09T19:16:13.232Z,98753.61
2024-01-09T19:18:42.085Z,98757.61
2024-01-09T19:21:11.316Z,98757.87
2024-01-09T19:23:40.111Z,98762.08
2024-01-09T19:26:09.407Z,98763.52
2024-01-09T19:28:39.454Z,98763.44
2024-01-09T19:31:08.693Z,98763.00
2024-01-09T19:33:37.838Z,98762.92
2024-01-09T19:36:14.695Z,98760.31
2024-01-09T19:38:44.716Z,98763.35
2024-01-09T19:41:17.709Z,98762.96
2024-01-09T19:43:46.638Z,98766.17
2024-01-09T19:46:16.139Z,98766.77
2024-01-09T19:48:45.132Z,98770.79
2024-01-09T19:51:14.286Z,98769.19
2024-01-09T19:53:43.500Z,98775.05
2024-01-09T19:56:12.647Z,98778.52
2024-01-09T19:58:42.640Z,98778.27
2024-01-09T20:01:11.681Z,98777.16
2024-01-09T20:03:41.396Z,98773.55
2024-01-09T20:06:30.305Z,98772.29
2024-01-09T20:08:59.562Z,98775.46
2024-01-09T20:11:31.428Z,98772.71
2024-01-09T20:14:01.289Z,98773.73
2024-01-09T20:16:30.961Z,98775.59
2024-01-09T20:19:00.443Z,98778.45
2024-01-09T20:21:31.380Z,98779.98
2024-01-09T20:24:00.579Z,98778.23
2024-01-09T20:26:36.773Z,98775.85
2024-01-09T20:29:10.675Z,98778.88
2024-01-09T20:31:39.754Z,98776.59
2024-01-09T20:34:08.981Z,98779.17
2024-01-09T20:36:45.020Z,98783.97
2024-01-09T20:39:16.773Z,98785.72
2024-01-09T20:41:45.472Z,98782.05
2024-01-09T20:44:15.225Z,98785.88
2024-01-09T20:46:45.480Z,98782.95
2024-01-09T20:49:14.497Z,98781.77
2024-01-09T20:51:46.951Z,98780.17
2024-01-09T20:54:16.054Z,98779.47
2024-01-09T20:56:45.657Z,98782.30
2024-01-09T20:59:16.900Z,98784.66
2024-01-09T21:01:46.027Z,98784.39
2024-01-09T21:04:15.842Z,98788.81
2024-01-09T21:06:49.520Z,98791.52
2024-01-09T21:09:19.037Z,98790.90
2024-01-09T21:11:48.312Z,98787.55
2024-01-09T21:14:17.585Z,98786.89
2024-01-09T21:16:46.639Z,98791.45
2024-01-09T21:19:15.639Z,98791.80
2024-01-09T21:21:45.638Z,98789.94
2024-01-09T21:24:15.525Z,98787.50
2024-01-09T21:26:44.838Z,98792.30
2024-01-09T21:29:14.201Z,98797.62
2024-01-09T21:31:43.505Z,98799.58
2024-01-09T21:34:12.673Z,98801.40
2024-01-09T21:36:42.074Z,98800.82
2024-01-09T21:39:11.340Z,98801.33
2024-01-09T21:41:40.922Z,98797.27
2024-01-09T21:44:10.473Z,98796.90
2024-01-09T21:46:39.668Z,98796.52
2024-01-09T21:49:09.169Z,98797.81
2024-01-09T21:51:38.367Z,98796.80
2024-01-09T21:54:07.415Z,98798.10
2024-01-09T21:56:37.754Z,98794.84
2024-01-09T21:59:07.086Z,98790.03
2024-01-09T22:01:37.963Z,98784.87
2024-01-09T22:04:07.185Z,98782.58
2024-01-09T22:06:36.888Z,98780.42
2024-01-09T22:09:07.325Z,98782.80
2024-01-09T22:11:41.204Z,98784.36
2024-01-09T22:14:11.358Z,98784.83
2024-01-09T22:16:41.364Z,98785.34
2024-01-09T22:19:11.415Z,98778.53
2024-01-09T22:21:46.272Z,98782.20
2024-01-09T22:24:17.006Z,98779.88
2024-01-09T22:26:48.524Z,98782.01
2024-01-09T22:29:17.758Z,98782.13
2024-01-09T22:31:48.378Z,98785.46
2024-01-09T22:34:18.551Z,98782.89
2024-01-09T22:36:47.563Z,98773.47
2024-01-09T22:39:20.006Z,98770.71
2024-01-09T22:41:49.949Z,98767.48
2024-01-09T22:44:19.427Z,98768.70
2024-01-09T22:46:49.072Z,98768.14
2024-01-09T22:49:18.178Z,98764.11
2024-01-09T22:51:48.531Z,98767.73
2024-01-09T22:54:18.219Z,98765.56
2024-01-09T22:56:48.531Z,98765.39
2024-01-09T22:59:18.249Z,98762.50
2024-01-09T23:01:51.661Z,98758.20
2024-01-09T23:04:22.056Z,98755.58
2024-01-09T23:06:53.077Z,98747.84
2024-01-09T23:09:22.184Z,98745.54
2024-01-09T23:11:51.786Z,98743.80
2024-01-09T23:14:23.089Z,98739.79
2024-01-09T23:16:52.988Z,98741.70
2024-01-09T23:19:22.187Z,98737.34
2024-01-09T23:21:52.544Z,98737.15
2024-01-09T23:24:24.125Z,98740.63
2024-01-09T23:26:54.292Z,98747.13
2024-01-09T23:29:23.270Z,98743.83
2024-01-09T23:31:53.285Z,98740.34
2024-01-09T23:34:24.604Z,98745.13
2024-01-09T23:36:55.049Z,98741.27
2024-01-09T23:39:25.418Z,98740.50
2024-01-09T23:41:55.259Z,98739.72
2024-01-09T23:44:24.620Z,98741.61
2024-01-09T23:46:55.753Z,98738.80
2024-01-09T23:49:26.622Z,98736.67
2024-01-09T23:51:56.411Z,98742.63
2024-01-09T23:54:25.788Z,98747.51
2024-01-09T23:56:56.052Z,98747.17
2024-01-09T23:59:26.468Z,98743.05
